sensor_id;sensor_type;location;lat;lon;timestamp;temperature;humidity
9371;DHT22;4725;48.384;8.984;2023-05-01T00:00:07;8.70;99.90
9371;DHT22;4725;48.384;8.984;2023-05-01T00:02:36;8.70;99.90
9371;DHT22;4725;48.384;8.984;2023-05-01T00:05:03;8.80;99.90
9371;DHT22;4725;48.384;8.984;2023-05-01T00:07:30;8.80;99.90
9371;DHT22;4725;48.384;8.984;2023-05-01T00:09:57;8.80;99.90
9371;DHT22;4725;48.384;8.984;2023-05-01T00:12:24;8.80;99.90
9371;DHT22;4725;48.384;8.984;2023-05-01T00:14:53;8.80;99.90
9371;DHT22;4725;48.384;8.984;2023-05-01T00:17:19;8.80;99.90
9371;DHT22;4725;48.384;8.984;2023-05-01T00:27:13;8.80;99.90
9371;DHT22;4725;48.384;8.984;2023-05-01T00:29:40;8.90;99.90
9371;DHT22;4725;48.384;8.984;2023-05-01T00:32:07;8.90;99.90
9371;DHT22;4725;48.384;8.984;2023-05-01T00:39:30;9.10;99.90
9371;DHT22;4725;48.384;8.984;2023-05-01T00:41:57;9.10;99.90
9371;DHT22;4725;48.384;8.984;2023-05-01T00:44:23;9.00;99.90
9371;DHT22;4725;48.384;8.984;2023-05-01T00:46:50;9.10;99.90
9371;DHT22;4725;48.384;8.984;2023-05-01T00:49:17;9.10;99.90
9371;DHT22;4725;48.384;8.984;2023-05-01T00:51:46;9.10;99.90
9371;DHT22;4725;48.384;8.984;2023-05-01T00:54:16;9.00;99.90
9371;DHT22;4725;48.384;8.984;2023-05-01T00:56:45;9.00;99.90
9371;DHT22;4725;48.384;8.984;2023-05-01T00:59:13;9.00;99.90
9371;DHT22;4725;48.384;8.984;2023-05-01T01:01:40;9.00;99.90
9371;DHT22;4725;48.384;8.984;2023-05-01T01:04:07;9.00;99.90
9371;DHT22;4725;48.384;8.984;2023-05-01T01:06:41;9.00;99.90
9371;DHT22;4725;48.384;8.984;2023-05-01T01:09:19;9.00;99.90
9371;DHT22;4725;48.384;8.984;2023-05-01T01:11:59;9.10;99.90
9371;DHT22;4725;48.384;8.984;2023-05-01T01:14:34;9.10;99.90
9371;DHT22;4725;48.384;8.984;2023-05-01T01:17:06;9.10;99.90
9371;DHT22;4725;48.384;8.984;2023-05-01T01:22:46;9.20;99.90
9371;DHT22;4725;48.384;8.984;2023-05-01T01:25:32;9.20;99.90
9371;DHT22;4725;48.384;8.984;2023-05-01T01:28:16;9.20;99.90
9371;DHT22;4725;48.384;8.984;2023-05-01T01:31:08;9.20;99.90
9371;DHT22;4725;48.384;8.984;2023-05-01T01:34:00;9.20;99.90
9371;DHT22;4725;48.384;8.984;2023-05-01T01:36:40;9.20;99.90
9371;DHT22;4725;48.384;8.984;2023-05-01T01:39:12;9.30;99.90
9371;DHT22;4725;48.384;8.984;2023-05-01T01:41:43;9.20;99.90
9371;DHT22;4725;48.384;8.984;2023-05-01T01:44:16;9.20;99.90
9371;DHT22;4725;48.384;8.984;2023-05-01T01:46:47;9.20;99.90
9371;DHT22;4725;48.384;8.984;2023-05-01T01:49:19;9.20;99.90
9371;DHT22;4725;48.384;8.984;2023-05-01T01:51:49;9.20;99.90
9371;DHT22;4725;48.384;8.984;2023-05-01T01:54:21;9.10;99.90
9371;DHT22;4725;48.384;8.984;2023-05-01T01:56:49;9.10;99.90
9371;DHT22;4725;48.384;8.984;2023-05-01T01:59:18;9.10;99.90
9371;DHT22;4725;48.384;8.984;2023-05-01T02:01:46;9.20;99.90
9371;DHT22;4725;48.384;8.984;2023-05-01T02:04:15;9.10;99.90
9371;DHT22;4725;48.384;8.984;2023-05-01T02:06:44;9.20;99.90
9371;DHT22;4725;48.384;8.984;2023-05-01T02:09:16;9.10;99.90
9371;DHT22;4725;48.384;8.984;2023-05-01T02:11:45;9.20;99.90
9371;DHT22;4725;48.384;8.984;2023-05-01T02:14:12;9.10;99.90
9371;DHT22;4725;48.384;8.984;2023-05-01T02:16:40;9.10;99.90
9371;DHT22;4725;48.384;8.984;2023-05-01T02:19:08;9.10;99.90
9371;DHT22;4725;48.384;8.984;2023-05-01T02:21:38;9.00;99.90
9371;DHT22;4725;48.384;8.984;2023-05-01T02:26:40;9.00;99.90
9371;DHT22;4725;48.384;8.984;2023-05-01T02:29:07;9.00;99.90
9371;DHT22;4725;48.384;8.984;2023-05-01T02:31:34;9.00;99.90
9371;DHT22;4725;48.384;8.984;2023-05-01T02:34:01;9.00;99.90
9371;DHT22;4725;48.384;8.984;2023-05-01T02:36:28;9.00;99.90
9371;DHT22;4725;48.384;8.984;2023-05-01T02:38:58;9.00;99.90
9371;DHT22;4725;48.384;8.984;2023-05-01T02:41:25;9.10;99.90
9371;DHT22;4725;48.384;8.984;2023-05-01T02:43:57;9.00;99.90
9371;DHT22;4725;48.384;8.984;2023-05-01T02:48:53;8.60;99.90
9371;DHT22;4725;48.384;8.984;2023-05-01T02:51:23;8.50;99.90
9371;DHT22;4725;48.384;8.984;2023-05-01T02:53:51;8.50;99.90
9371;DHT22;4725;48.384;8.984;2023-05-01T02:56:19;8.50;99.90
9371;DHT22;4725;48.384;8.984;2023-05-01T02:58:47;8.60;99.90
9371;DHT22;4725;48.384;8.984;2023-05-01T03:01:14;8.50;99.90
9371;DHT22;4725;48.384;8.984;2023-05-01T03:03:41;8.50;99.90
9371;DHT22;4725;48.384;8.984;2023-05-01T03:06:08;8.50;99.90
9371;DHT22;4725;48.384;8.984;2023-05-01T03:08:35;8.40;99.90
9371;DHT22;4725;48.384;8.984;2023-05-01T03:11:04;8.40;99.90
9371;DHT22;4725;48.384;8.984;2023-05-01T03:13:32;8.40;99.90
9371;DHT22;4725;48.384;8.984;2023-05-01T03:15:59;8.50;99.90
9371;DHT22;4725;48.384;8.984;2023-05-01T03:18:26;8.50;99.90
9371;DHT22;4725;48.384;8.984;2023-05-01T03:20:54;8.50;99.90
9371;DHT22;4725;48.384;8.984;2023-05-01T03:23:21;8.50;99.90
9371;DHT22;4725;48.384;8.984;2023-05-01T03:25:48;8.50;99.90
9371;DHT22;4725;48.384;8.984;2023-05-01T03:28:15;8.50;99.90
9371;DHT22;4725;48.384;8.984;2023-05-01T03:30:44;8.40;99.90
9371;DHT22;4725;48.384;8.984;2023-05-01T03:33:11;8.50;99.90
9371;DHT22;4725;48.384;8.984;2023-05-01T03:35:38;8.50;99.90
9371;DHT22;4725;48.384;8.984;2023-05-01T03:40:33;8.40;99.90
9371;DHT22;4725;48.384;8.984;2023-05-01T03:43:01;8.40;99.90
9371;DHT22;4725;48.384;8.984;2023-05-01T03:47:57;8.30;99.90
9371;DHT22;4725;48.384;8.984;2023-05-01T03:50:23;8.30;99.90
9371;DHT22;4725;48.384;8.984;2023-05-01T03:52:50;8.30;99.90
9371;DHT22;4725;48.384;8.984;2023-05-01T03:55:17;8.30;99.90
9371;DHT22;4725;48.384;8.984;2023-05-01T03:57:44;8.30;99.90
9371;DHT22;4725;48.384;8.984;2023-05-01T04:00:12;8.30;99.90
9371;DHT22;4725;48.384;8.984;2023-05-01T04:02:39;8.30;99.90
9371;DHT22;4725;48.384;8.984;2023-05-01T04:05:08;8.40;99.90
9371;DHT22;4725;48.384;8.984;2023-05-01T04:07:35;8.30;99.90
9371;DHT22;4725;48.384;8.984;2023-05-01T04:10:02;8.30;99.90
9371;DHT22;4725;48.384;8.984;2023-05-01T04:12:29;8.30;99.90
9371;DHT22;4725;48.384;8.984;2023-05-01T04:14:56;8.40;99.90
9371;DHT22;4725;48.384;8.984;2023-05-01T04:17:22;8.40;99.90
9371;DHT22;4725;48.384;8.984;2023-05-01T04:19:50;8.30;99.90
9371;DHT22;4725;48.384;8.984;2023-05-01T04:22:18;8.20;99.90
9371;DHT22;4725;48.384;8.984;2023-05-01T04:24:45;8.10;99.90
9371;DHT22;4725;48.384;8.984;2023-05-01T04:27:12;8.20;99.90
9371;DHT22;4725;48.384;8.984;2023-05-01T04:29:38;8.30;99.90
9371;DHT22;4725;48.384;8.984;2023-05-01T04:32:06;8.20;99.90
9371;DHT22;4725;48.384;8.984;2023-05-01T04:34:33;8.30;99.90
9371;DHT22;4725;48.384;8.984;2023-05-01T04:36:59;8.30;99.90
9371;DHT22;4725;48.384;8.984;2023-05-01T04:39:29;8.30;99.90
9371;DHT22;4725;48.384;8.984;2023-05-01T04:41:56;8.30;99.90
9371;DHT22;4725;48.384;8.984;2023-05-01T04:44:23;8.20;99.90
9371;DHT22;4725;48.384;8.984;2023-05-01T04:51:44;8.30;99.90
9371;DHT22;4725;48.384;8.984;2023-05-01T04:54:11;8.30;99.90
9371;DHT22;4725;48.384;8.984;2023-05-01T04:56:39;8.40;99.90
9371;DHT22;4725;48.384;8.984;2023-05-01T04:59:06;8.40;99.90
9371;DHT22;4725;48.384;8.984;2023-05-01T05:01:33;8.30;99.90
9371;DHT22;4725;48.384;8.984;2023-05-01T05:06:27;8.20;99.90
9371;DHT22;4725;48.384;8.984;2023-05-01T05:08:54;8.30;99.90
9371;DHT22;4725;48.384;8.984;2023-05-01T05:11:22;8.30;99.90
9371;DHT22;4725;48.384;8.984;2023-05-01T05:13:50;8.30;99.90
9371;DHT22;4725;48.384;8.984;2023-05-01T05:16:17;8.40;99.90
9371;DHT22;4725;48.384;8.984;2023-05-01T05:21:11;8.40;99.90
9371;DHT22;4725;48.384;8.984;2023-05-01T05:23:38;8.40;99.90
9371;DHT22;4725;48.384;8.984;2023-05-01T05:26:05;7.20;99.90
9371;DHT22;4725;48.384;8.984;2023-05-01T05:28:32;8.50;99.90
9371;DHT22;4725;48.384;8.984;2023-05-01T05:31:00;8.60;99.90
9371;DHT22;4725;48.384;8.984;2023-05-01T05:33:27;8.60;99.90
9371;DHT22;4725;48.384;8.984;2023-05-01T05:35:54;8.60;99.90
9371;DHT22;4725;48.384;8.984;2023-05-01T05:38:21;8.50;99.90
9371;DHT22;4725;48.384;8.984;2023-05-01T05:43:15;8.60;99.90
9371;DHT22;4725;48.384;8.984;2023-05-01T05:45:42;8.60;99.90
9371;DHT22;4725;48.384;8.984;2023-05-01T05:48:10;8.70;99.90
9371;DHT22;4725;48.384;8.984;2023-05-01T05:50:37;8.80;99.90
9371;DHT22;4725;48.384;8.984;2023-05-01T05:53:04;8.90;99.90
9371;DHT22;4725;48.384;8.984;2023-05-01T05:55:31;8.90;99.90
9371;DHT22;4725;48.384;8.984;2023-05-01T05:57:58;9.00;99.90
9371;DHT22;4725;48.384;8.984;2023-05-01T06:00:25;9.10;99.90
9371;DHT22;4725;48.384;8.984;2023-05-01T06:02:52;9.10;99.90
9371;DHT22;4725;48.384;8.984;2023-05-01T06:05:20;9.20;99.90
9371;DHT22;4725;48.384;8.984;2023-05-01T06:07:47;9.20;99.90
9371;DHT22;4725;48.384;8.984;2023-05-01T06:10:14;9.30;99.90
9371;DHT22;4725;48.384;8.984;2023-05-01T06:12:40;9.40;99.90
9371;DHT22;4725;48.384;8.984;2023-05-01T06:15:08;9.40;99.90
9371;DHT22;4725;48.384;8.984;2023-05-01T06:17:35;9.50;99.90
9371;DHT22;4725;48.384;8.984;2023-05-01T06:20:02;9.50;99.90
9371;DHT22;4725;48.384;8.984;2023-05-01T06:22:32;9.50;99.90
9371;DHT22;4725;48.384;8.984;2023-05-01T06:24:58;9.50;99.90
9371;DHT22;4725;48.384;8.984;2023-05-01T06:27:26;9.50;99.90
9371;DHT22;4725;48.384;8.984;2023-05-01T06:29:53;9.50;99.90
9371;DHT22;4725;48.384;8.984;2023-05-01T06:32:19;9.50;99.90
9371;DHT22;4725;48.384;8.984;2023-05-01T06:34:47;9.50;99.90
9371;DHT22;4725;48.384;8.984;2023-05-01T06:37:14;9.40;99.90
9371;DHT22;4725;48.384;8.984;2023-05-01T06:39:42;9.40;99.90
9371;DHT22;4725;48.384;8.984;2023-05-01T06:42:09;9.30;99.90
9371;DHT22;4725;48.384;8.984;2023-05-01T06:44:40;9.40;99.90
9371;DHT22;4725;48.384;8.984;2023-05-01T06:47:07;9.30;99.90
9371;DHT22;4725;48.384;8.984;2023-05-01T06:49:34;9.40;99.90
9371;DHT22;4725;48.384;8.984;2023-05-01T06:52:01;9.30;99.90
9371;DHT22;4725;48.384;8.984;2023-05-01T06:54:28;9.40;99.90
9371;DHT22;4725;48.384;8.984;2023-05-01T06:56:56;9.40;99.90
9371;DHT22;4725;48.384;8.984;2023-05-01T06:59:23;9.40;99.90
9371;DHT22;4725;48.384;8.984;2023-05-01T07:01:50;9.40;99.90
9371;DHT22;4725;48.384;8.984;2023-05-01T07:04:18;9.50;99.90
9371;DHT22;4725;48.384;8.984;2023-05-01T07:06:44;9.50;99.90
9371;DHT22;4725;48.384;8.984;2023-05-01T07:09:11;9.50;99.90
9371;DHT22;4725;48.384;8.984;2023-05-01T07:11:38;9.50;99.90
9371;DHT22;4725;48.384;8.984;2023-05-01T07:14:08;9.60;99.90
9371;DHT22;4725;48.384;8.984;2023-05-01T07:16:35;9.60;99.90
9371;DHT22;4725;48.384;8.984;2023-05-01T07:19:02;9.60;99.90
9371;DHT22;4725;48.384;8.984;2023-05-01T07:21:28;9.70;99.90
9371;DHT22;4725;48.384;8.984;2023-05-01T07:26:24;9.90;99.90
9371;DHT22;4725;48.384;8.984;2023-05-01T07:28:51;10.00;99.90
9371;DHT22;4725;48.384;8.984;2023-05-01T07:31:19;10.10;99.90
9371;DHT22;4725;48.384;8.984;2023-05-01T07:33:47;10.10;99.90
9371;DHT22;4725;48.384;8.984;2023-05-01T07:36:14;10.10;99.90
9371;DHT22;4725;48.384;8.984;2023-05-01T07:43:37;10.40;99.90
9371;DHT22;4725;48.384;8.984;2023-05-01T07:46:04;10.40;99.90
9371;DHT22;4725;48.384;8.984;2023-05-01T07:48:33;10.60;99.90
9371;DHT22;4725;48.384;8.984;2023-05-01T07:53:28;10.90;99.90
9371;DHT22;4725;48.384;8.984;2023-05-01T07:56:03;11.00;99.90
9371;DHT22;4725;48.384;8.984;2023-05-01T08:00:59;11.20;99.90
9371;DHT22;4725;48.384;8.984;2023-05-01T08:03:27;11.20;99.90
9371;DHT22;4725;48.384;8.984;2023-05-01T08:05:55;11.50;99.90
9371;DHT22;4725;48.384;8.984;2023-05-01T08:08:23;11.40;99.90
9371;DHT22;4725;48.384;8.984;2023-05-01T08:10:50;11.70;99.90
9371;DHT22;4725;48.384;8.984;2023-05-01T08:13:17;12.70;99.90
9371;DHT22;4725;48.384;8.984;2023-05-01T08:15:45;12.00;99.90
9371;DHT22;4725;48.384;8.984;2023-05-01T08:18:12;12.10;99.90
9371;DHT22;4725;48.384;8.984;2023-05-01T08:20:44;12.20;99.90
9371;DHT22;4725;48.384;8.984;2023-05-01T08:23:13;12.40;99.90
9371;DHT22;4725;48.384;8.984;2023-05-01T08:25:40;12.40;99.90
9371;DHT22;4725;48.384;8.984;2023-05-01T08:28:08;12.30;99.90
9371;DHT22;4725;48.384;8.984;2023-05-01T08:30:35;12.30;99.90
9371;DHT22;4725;48.384;8.984;2023-05-01T08:33:02;12.40;99.90
9371;DHT22;4725;48.384;8.984;2023-05-01T08:35:29;12.60;99.90
9371;DHT22;4725;48.384;8.984;2023-05-01T08:37:55;12.70;99.90
9371;DHT22;4725;48.384;8.984;2023-05-01T08:40:25;12.80;99.90
9371;DHT22;4725;48.384;8.984;2023-05-01T08:42:53;12.90;99.90
9371;DHT22;4725;48.384;8.984;2023-05-01T08:45:23;13.10;99.90
9371;DHT22;4725;48.384;8.984;2023-05-01T08:47:51;13.30;99.90
9371;DHT22;4725;48.384;8.984;2023-05-01T08:50:21;13.30;99.90
9371;DHT22;4725;48.384;8.984;2023-05-01T08:52:50;13.60;99.90
9371;DHT22;4725;48.384;8.984;2023-05-01T08:55:18;13.60;99.90
9371;DHT22;4725;48.384;8.984;2023-05-01T08:57:47;14.00;99.90
9371;DHT22;4725;48.384;8.984;2023-05-01T09:00:17;14.30;99.90
9371;DHT22;4725;48.384;8.984;2023-05-01T09:02:46;14.20;99.90
9371;DHT22;4725;48.384;8.984;2023-05-01T09:05:14;14.00;99.90
9371;DHT22;4725;48.384;8.984;2023-05-01T09:07:42;13.50;99.90
9371;DHT22;4725;48.384;8.984;2023-05-01T09:10:10;13.60;99.90
9371;DHT22;4725;48.384;8.984;2023-05-01T09:12:38;13.60;99.90
9371;DHT22;4725;48.384;8.984;2023-05-01T09:15:11;13.80;99.90
9371;DHT22;4725;48.384;8.984;2023-05-01T09:17:39;14.00;99.90
9371;DHT22;4725;48.384;8.984;2023-05-01T09:20:07;13.80;99.90
9371;DHT22;4725;48.384;8.984;2023-05-01T09:22:34;13.80;99.90
9371;DHT22;4725;48.384;8.984;2023-05-01T09:25:01;13.90;99.90
9371;DHT22;4725;48.384;8.984;2023-05-01T09:27:30;13.70;99.90
9371;DHT22;4725;48.384;8.984;2023-05-01T09:29:59;13.80;99.90
9371;DHT22;4725;48.384;8.984;2023-05-01T09:32:27;13.80;99.90
9371;DHT22;4725;48.384;8.984;2023-05-01T09:35:08;13.90;99.90
9371;DHT22;4725;48.384;8.984;2023-05-01T09:37:35;14.00;99.90
9371;DHT22;4725;48.384;8.984;2023-05-01T09:40:03;14.00;99.90
9371;DHT22;4725;48.384;8.984;2023-05-01T09:42:31;14.00;99.90
9371;DHT22;4725;48.384;8.984;2023-05-01T09:44:58;14.00;99.90
9371;DHT22;4725;48.384;8.984;2023-05-01T09:49:55;13.50;99.90
9371;DHT22;4725;48.384;8.984;2023-05-01T09:52:25;13.50;99.90
9371;DHT22;4725;48.384;8.984;2023-05-01T09:55:10;13.80;99.90
9371;DHT22;4725;48.384;8.984;2023-05-01T09:57:38;13.80;99.90
9371;DHT22;4725;48.384;8.984;2023-05-01T10:00:08;13.70;99.90
9371;DHT22;4725;48.384;8.984;2023-05-01T10:02:37;13.60;99.90
9371;DHT22;4725;48.384;8.984;2023-05-01T10:05:05;13.90;99.90
9371;DHT22;4725;48.384;8.984;2023-05-01T10:07:33;14.30;99.90
9371;DHT22;4725;48.384;8.984;2023-05-01T10:10:15;14.40;99.90
9371;DHT22;4725;48.384;8.984;2023-05-01T10:12:42;14.40;99.90
9371;DHT22;4725;48.384;8.984;2023-05-01T10:15:09;14.50;99.90
9371;DHT22;4725;48.384;8.984;2023-05-01T10:17:39;14.00;99.90
9371;DHT22;4725;48.384;8.984;2023-05-01T10:20:07;13.80;99.90
9371;DHT22;4725;48.384;8.984;2023-05-01T10:22:34;13.80;99.90
9371;DHT22;4725;48.384;8.984;2023-05-01T10:25:01;13.80;99.90
9371;DHT22;4725;48.384;8.984;2023-05-01T10:27:29;13.80;99.90
9371;DHT22;4725;48.384;8.984;2023-05-01T10:29:58;13.60;99.90
9371;DHT22;4725;48.384;8.984;2023-05-01T10:32:29;13.70;99.90
9371;DHT22;4725;48.384;8.984;2023-05-01T10:35:01;14.20;99.90
9371;DHT22;4725;48.384;8.984;2023-05-01T10:37:36;14.30;99.90
9371;DHT22;4725;48.384;8.984;2023-05-01T10:40:43;13.80;99.90
9371;DHT22;4725;48.384;8.984;2023-05-01T10:43:15;13.80;99.90
9371;DHT22;4725;48.384;8.984;2023-05-01T10:45:43;13.80;99.90
9371;DHT22;4725;48.384;8.984;2023-05-01T10:53:47;13.50;99.90
9371;DHT22;4725;48.384;8.984;2023-05-01T10:56:41;13.40;99.90
9371;DHT22;4725;48.384;8.984;2023-05-01T10:59:08;13.60;99.90
9371;DHT22;4725;48.384;8.984;2023-05-01T11:01:37;13.70;99.90
9371;DHT22;4725;48.384;8.984;2023-05-01T11:04:06;13.80;99.90
9371;DHT22;4725;48.384;8.984;2023-05-01T11:06:34;14.00;99.90
9371;DHT22;4725;48.384;8.984;2023-05-01T11:12:12;15.00;99.90
9371;DHT22;4725;48.384;8.984;2023-05-01T11:15:02;15.00;99.90
9371;DHT22;4725;48.384;8.984;2023-05-01T11:17:45;15.50;99.90
9371;DHT22;4725;48.384;8.984;2023-05-01T11:20:44;15.50;99.90
9371;DHT22;4725;48.384;8.984;2023-05-01T11:23:19;15.30;99.90
9371;DHT22;4725;48.384;8.984;2023-05-01T11:25:47;15.40;99.90
9371;DHT22;4725;48.384;8.984;2023-05-01T11:28:19;15.30;99.90
9371;DHT22;4725;48.384;8.984;2023-05-01T11:30:49;15.60;99.90
9371;DHT22;4725;48.384;8.984;2023-05-01T11:33:23;16.10;99.90
9371;DHT22;4725;48.384;8.984;2023-05-01T11:35:56;16.30;99.90
9371;DHT22;4725;48.384;8.984;2023-05-01T11:38:24;15.90;99.90
9371;DHT22;4725;48.384;8.984;2023-05-01T11:40:54;15.80;99.90
9371;DHT22;4725;48.384;8.984;2023-05-01T11:43:23;15.30;99.90
9371;DHT22;4725;48.384;8.984;2023-05-01T11:45:52;15.10;99.90
9371;DHT22;4725;48.384;8.984;2023-05-01T11:48:20;14.70;99.90
9371;DHT22;4725;48.384;8.984;2023-05-01T11:50:47;15.00;99.90
9371;DHT22;4725;48.384;8.984;2023-05-01T11:53:15;15.50;99.90
9371;DHT22;4725;48.384;8.984;2023-05-01T11:55:42;15.60;99.90
9371;DHT22;4725;48.384;8.984;2023-05-01T11:58:09;15.90;99.90
9371;DHT22;4725;48.384;8.984;2023-05-01T12:00:39;15.70;99.90
9371;DHT22;4725;48.384;8.984;2023-05-01T12:03:08;16.30;99.90
9371;DHT22;4725;48.384;8.984;2023-05-01T12:05:36;16.00;99.90
9371;DHT22;4725;48.384;8.984;2023-05-01T12:08:08;16.20;99.90
9371;DHT22;4725;48.384;8.984;2023-05-01T12:10:37;15.90;99.90
9371;DHT22;4725;48.384;8.984;2023-05-01T12:13:05;16.20;99.90
9371;DHT22;4725;48.384;8.984;2023-05-01T12:15:34;17.00;99.90
9371;DHT22;4725;48.384;8.984;2023-05-01T12:18:03;16.90;99.90
9371;DHT22;4725;48.384;8.984;2023-05-01T12:20:35;17.30;99.90
9371;DHT22;4725;48.384;8.984;2023-05-01T12:23:03;17.20;99.90
9371;DHT22;4725;48.384;8.984;2023-05-01T12:25:31;17.20;99.90
9371;DHT22;4725;48.384;8.984;2023-05-01T12:27:59;18.10;99.90
9371;DHT22;4725;48.384;8.984;2023-05-01T12:30:27;18.80;99.90
9371;DHT22;4725;48.384;8.984;2023-05-01T12:32:56;18.50;99.90
9371;DHT22;4725;48.384;8.984;2023-05-01T12:35:29;18.50;99.90
9371;DHT22;4725;48.384;8.984;2023-05-01T12:37:57;18.10;99.90
9371;DHT22;4725;48.384;8.984;2023-05-01T12:40:25;18.80;99.90
9371;DHT22;4725;48.384;8.984;2023-05-01T12:42:55;19.00;99.90
9371;DHT22;4725;48.384;8.984;2023-05-01T12:45:24;19.80;99.90
9371;DHT22;4725;48.384;8.984;2023-05-01T12:47:51;19.50;99.90
9371;DHT22;4725;48.384;8.984;2023-05-01T12:50:19;19.70;99.90
9371;DHT22;4725;48.384;8.984;2023-05-01T12:52:47;19.60;99.90
9371;DHT22;4725;48.384;8.984;2023-05-01T12:55:15;19.30;99.90
9371;DHT22;4725;48.384;8.984;2023-05-01T12:57:51;19.70;99.90
9371;DHT22;4725;48.384;8.984;2023-05-01T13:00:19;18.30;99.90
9371;DHT22;4725;48.384;8.984;2023-05-01T13:02:47;18.30;99.90
9371;DHT22;4725;48.384;8.984;2023-05-01T13:05:14;17.60;99.90
9371;DHT22;4725;48.384;8.984;2023-05-01T13:07:48;18.80;99.90
9371;DHT22;4725;48.384;8.984;2023-05-01T13:10:28;19.40;99.90
9371;DHT22;4725;48.384;8.984;2023-05-01T13:12:55;19.40;99.90
9371;DHT22;4725;48.384;8.984;2023-05-01T13:15:22;18.40;99.90
9371;DHT22;4725;48.384;8.984;2023-05-01T13:17:49;17.70;99.90
9371;DHT22;4725;48.384;8.984;2023-05-01T13:20:24;17.60;99.90
9371;DHT22;4725;48.384;8.984;2023-05-01T13:22:53;17.60;99.90
9371;DHT22;4725;48.384;8.984;2023-05-01T13:25:19;17.60;99.90
9371;DHT22;4725;48.384;8.984;2023-05-01T13:27:48;17.20;99.90
9371;DHT22;4725;48.384;8.984;2023-05-01T13:30:17;16.40;99.90
9371;DHT22;4725;48.384;8.984;2023-05-01T13:32:46;16.50;99.90
9371;DHT22;4725;48.384;8.984;2023-05-01T13:35:21;16.70;99.90
9371;DHT22;4725;48.384;8.984;2023-05-01T13:37:49;16.40;99.90
9371;DHT22;4725;48.384;8.984;2023-05-01T13:40:18;15.40;99.90
9371;DHT22;4725;48.384;8.984;2023-05-01T13:42:46;15.30;99.90
9371;DHT22;4725;48.384;8.984;2023-05-01T13:45:18;14.80;99.90
9371;DHT22;4725;48.384;8.984;2023-05-01T13:47:45;14.30;99.90
9371;DHT22;4725;48.384;8.984;2023-05-01T13:50:15;13.10;99.90
9371;DHT22;4725;48.384;8.984;2023-05-01T13:52:43;13.10;99.90
9371;DHT22;4725;48.384;8.984;2023-05-01T13:55:10;12.60;99.90
9371;DHT22;4725;48.384;8.984;2023-05-01T13:57:39;12.70;99.90
9371;DHT22;4725;48.384;8.984;2023-05-01T14:02:41;14.50;99.90
9371;DHT22;4725;48.384;8.984;2023-05-01T14:05:09;15.60;99.90
9371;DHT22;4725;48.384;8.984;2023-05-01T14:07:43;16.00;99.90
9371;DHT22;4725;48.384;8.984;2023-05-01T14:10:11;16.40;99.90
9371;DHT22;4725;48.384;8.984;2023-05-01T14:12:40;16.50;99.90
9371;DHT22;4725;48.384;8.984;2023-05-01T14:15:08;17.00;99.90
9371;DHT22;4725;48.384;8.984;2023-05-01T14:17:36;17.50;99.90
9371;DHT22;4725;48.384;8.984;2023-05-01T14:20:04;17.60;99.90
9371;DHT22;4725;48.384;8.984;2023-05-01T14:22:40;17.00;99.90
9371;DHT22;4725;48.384;8.984;2023-05-01T14:25:23;16.40;99.90
9371;DHT22;4725;48.384;8.984;2023-05-01T14:27:52;16.20;99.90
9371;DHT22;4725;48.384;8.984;2023-05-01T14:30:26;18.00;99.90
9371;DHT22;4725;48.384;8.984;2023-05-01T14:32:53;15.30;99.90
9371;DHT22;4725;48.384;8.984;2023-05-01T14:35:21;14.90;99.90
9371;DHT22;4725;48.384;8.984;2023-05-01T14:37:48;14.10;99.90
9371;DHT22;4725;48.384;8.984;2023-05-01T14:40:16;13.90;99.90
9371;DHT22;4725;48.384;8.984;2023-05-01T14:42:44;13.90;99.90
9371;DHT22;4725;48.384;8.984;2023-05-01T14:45:14;13.60;99.90
9371;DHT22;4725;48.384;8.984;2023-05-01T14:47:44;13.30;99.90
9371;DHT22;4725;48.384;8.984;2023-05-01T14:50:17;12.70;99.90
9371;DHT22;4725;48.384;8.984;2023-05-01T14:52:44;12.70;99.90
9371;DHT22;4725;48.384;8.984;2023-05-01T14:55:11;12.50;99.90
9371;DHT22;4725;48.384;8.984;2023-05-01T14:57:39;12.30;99.90
9371;DHT22;4725;48.384;8.984;2023-05-01T15:00:07;12.10;99.90
9371;DHT22;4725;48.384;8.984;2023-05-01T15:02:35;11.70;99.90
9371;DHT22;4725;48.384;8.984;2023-05-01T15:05:04;11.40;99.90
9371;DHT22;4725;48.384;8.984;2023-05-01T15:07:30;11.40;99.90
9371;DHT22;4725;48.384;8.984;2023-05-01T15:09:57;11.50;99.90
9371;DHT22;4725;48.384;8.984;2023-05-01T15:12:24;11.60;99.90
9371;DHT22;4725;48.384;8.984;2023-05-01T15:14:51;11.80;99.90
9371;DHT22;4725;48.384;8.984;2023-05-01T15:17:18;11.90;99.90
9371;DHT22;4725;48.384;8.984;2023-05-01T15:19:46;11.90;99.90
9371;DHT22;4725;48.384;8.984;2023-05-01T15:22:13;12.00;99.90
9371;DHT22;4725;48.384;8.984;2023-05-01T15:24:40;11.90;99.90
9371;DHT22;4725;48.384;8.984;2023-05-01T15:27:07;12.00;99.90
9371;DHT22;4725;48.384;8.984;2023-05-01T15:29:34;12.00;99.90
9371;DHT22;4725;48.384;8.984;2023-05-01T15:32:01;12.00;99.90
9371;DHT22;4725;48.384;8.984;2023-05-01T15:34:28;12.20;99.90
9371;DHT22;4725;48.384;8.984;2023-05-01T15:36:56;12.30;99.90
9371;DHT22;4725;48.384;8.984;2023-05-01T15:39:23;12.50;99.90
9371;DHT22;4725;48.384;8.984;2023-05-01T15:41:50;12.50;99.90
9371;DHT22;4725;48.384;8.984;2023-05-01T15:44:17;12.60;99.90
9371;DHT22;4725;48.384;8.984;2023-05-01T15:46:45;12.70;99.90
9371;DHT22;4725;48.384;8.984;2023-05-01T15:49:12;12.80;99.90
9371;DHT22;4725;48.384;8.984;2023-05-01T15:51:39;12.50;99.90
9371;DHT22;4725;48.384;8.984;2023-05-01T15:54:08;12.40;99.90
9371;DHT22;4725;48.384;8.984;2023-05-01T15:56:35;12.60;99.90
9371;DHT22;4725;48.384;8.984;2023-05-01T15:59:03;12.80;99.90
9371;DHT22;4725;48.384;8.984;2023-05-01T16:01:31;12.80;99.90
9371;DHT22;4725;48.384;8.984;2023-05-01T16:03:58;12.80;99.90
9371;DHT22;4725;48.384;8.984;2023-05-01T16:06:26;12.90;99.90
9371;DHT22;4725;48.384;8.984;2023-05-01T16:08:53;13.10;99.90
9371;DHT22;4725;48.384;8.984;2023-05-01T16:11:21;13.30;99.90
9371;DHT22;4725;48.384;8.984;2023-05-01T16:13:48;13.40;99.90
9371;DHT22;4725;48.384;8.984;2023-05-01T16:16:21;13.70;99.90
9371;DHT22;4725;48.384;8.984;2023-05-01T16:18:52;14.50;99.90
9371;DHT22;4725;48.384;8.984;2023-05-01T16:21:20;14.30;99.90
9371;DHT22;4725;48.384;8.984;2023-05-01T16:23:47;14.20;99.90
9371;DHT22;4725;48.384;8.984;2023-05-01T16:26:19;13.70;99.90
9371;DHT22;4725;48.384;8.984;2023-05-01T16:28:48;14.10;99.90
9371;DHT22;4725;48.384;8.984;2023-05-01T16:31:15;15.10;99.90
9371;DHT22;4725;48.384;8.984;2023-05-01T16:33:44;15.30;99.90
9371;DHT22;4725;48.384;8.984;2023-05-01T16:36:14;15.40;99.90
9371;DHT22;4725;48.384;8.984;2023-05-01T16:38:42;15.90;99.90
9371;DHT22;4725;48.384;8.984;2023-05-01T16:41:14;15.00;99.90
9371;DHT22;4725;48.384;8.984;2023-05-01T16:43:41;15.20;99.90
9371;DHT22;4725;48.384;8.984;2023-05-01T16:46:10;16.10;99.90
9371;DHT22;4725;48.384;8.984;2023-05-01T16:48:38;17.30;99.90
9371;DHT22;4725;48.384;8.984;2023-05-01T16:51:05;17.40;99.90
9371;DHT22;4725;48.384;8.984;2023-05-01T16:53:32;17.60;99.90
9371;DHT22;4725;48.384;8.984;2023-05-01T16:56:00;16.50;99.90
9371;DHT22;4725;48.384;8.984;2023-05-01T16:58:27;16.40;99.90
9371;DHT22;4725;48.384;8.984;2023-05-01T17:00:54;15.70;99.90
9371;DHT22;4725;48.384;8.984;2023-05-01T17:03:22;15.40;99.90
9371;DHT22;4725;48.384;8.984;2023-05-01T17:05:49;14.80;99.90
9371;DHT22;4725;48.384;8.984;2023-05-01T17:08:16;14.60;99.90
9371;DHT22;4725;48.384;8.984;2023-05-01T17:10:43;14.30;99.90
9371;DHT22;4725;48.384;8.984;2023-05-01T17:13:10;14.30;99.90
9371;DHT22;4725;48.384;8.984;2023-05-01T17:15:39;14.20;99.90
9371;DHT22;4725;48.384;8.984;2023-05-01T17:18:06;14.00;99.90
9371;DHT22;4725;48.384;8.984;2023-05-01T17:23:01;13.80;99.90
9371;DHT22;4725;48.384;8.984;2023-05-01T17:25:28;13.80;99.90